Flight Track Log - Related Links

Times and Time Zones

All times are in EDT time to prevent confusion due to time zone crossing. See the UPS1131 flight status page for this flight to view local times or setup timezone preferences in your user account.

Time Position Orientation Groundspeed Altitude Reporting Facility
EDT Latitude Longitude Course Direction KTS MPH feet Rate Location/Type
Mon 11:32:41 PM 42.9450 -78.7240 118° Southeast 141 162 1,400  Level FlightAware ADS-B
Mon 11:32:57 PM 42.9520 -78.7150 43° Northeast 127 146 2,400 1,636 Climbing FlightAware ADS-B
Mon 11:33:25 PM 42.9640 -78.6950 51° Northeast 160 184 2,600 571 Climbing FlightAware ADS-B
Mon 11:33:39 PM 42.9610 -78.6810 106° East 186 214 2,800 1,600 Climbing FlightAware ADS-B
Mon 11:33:55 PM 42.9510 -78.6690 139° Southeast 208 239 3,400 2,786 Climbing FlightAware ADS-B
Mon 11:34:07 PM 42.9390 -78.6650 166° South 222 255 4,100 3,000 Climbing FlightAware ADS-B
Mon 11:34:31 PM 42.9130 -78.6650 180° South 248 285 5,200 3,000 Climbing FlightAware ADS-B
Mon 11:35:01 PM 42.8750 -78.6610 176° South 274 315 6,800 3,581 Climbing FlightAware ADS-B
Mon 11:35:33 PM 42.8330 -78.6600 179° South 276 318 8,900 3,581 Climbing FlightAware ADS-B
Mon 11:36:03 PM 42.7940 -78.6580 178° South 296 341 10,500 2,447 Climbing FlightAware ADS-B
Mon 11:36:49 PM 42.7250 -78.6550 178° South 346 398 12,000 2,512 Climbing FlightAware ADS-B
Mon 11:37:29 PM 42.6600 -78.6510 177° South 357 411 14,100 3,143 Climbing FlightAware ADS-B
Mon 11:38:13 PM 42.5880 -78.6480 178° South 364 419 16,400 3,000 Climbing FlightAware ADS-B
Mon 11:38:53 PM 42.5190 -78.6380 174° South 375 432 18,300 2,634 Climbing FlightAware ADS-B
Mon 11:39:35 PM 42.4600 -78.5850 146° Southeast 395 455 20,000 2,442 Climbing FlightAware ADS-B
Mon 11:40:19 PM 42.3970 -78.5060 137° Southeast 407 468 21,800 2,447 Climbing FlightAware ADS-B
Mon 11:40:51 PM 42.3550 -78.4530 137° Southeast 410 472 23,100 2,486 Climbing FlightAware ADS-B
Mon 11:41:29 PM 42.3020 -78.3870 137° Southeast 411 473 24,700 2,523 Climbing FlightAware ADS-B
Mon 11:42:19 PM 42.2320 -78.3000 137° Southeast 407 468 26,800 1,725 Climbing FlightAware ADS-B
Mon 11:42:49 PM 42.1890 -78.2460 137° Southeast 416 479 27,000 162 Climbing FlightAware ADS-B
Mon 11:43:33 PM 42.1230 -78.1650 138° Southeast 450 518 27,000  Level FlightAware ADS-B
Mon 11:44:13 PM 42.0610 -78.0880 137° Southeast 455 524 27,000  Level FlightAware ADS-B
Mon 11:44:55 PM 41.9940 -78.0050 137° Southeast 459 528 27,000  Level FlightAware ADS-B
Mon 11:45:38 PM 41.9360 -77.9330 137° Southeast 459 528 27,000  Level FlightAware ADS-B
Mon 11:46:17 PM 41.8730 -77.8550 137° Southeast 462 532 27,000  Level FlightAware ADS-B
Mon 11:46:57 PM 41.8120 -77.7810 138° Southeast 461 531 27,000  Level FlightAware ADS-B
Mon 11:47:42 PM 41.7420 -77.6970 138° Southeast 456 525 27,000  Level FlightAware ADS-B
Mon 11:48:27 PM 41.6690 -77.6090 138° Southeast 453 521 27,000  Level FlightAware ADS-B
Mon 11:49:07 PM 41.6070 -77.5340 138° Southeast 452 520 27,000  Level FlightAware ADS-B
Mon 11:49:52 PM 41.5370 -77.4500 138° Southeast 452 520 27,000  Level FlightAware ADS-B
Mon 11:50:32 PM 41.4760 -77.3770 138° Southeast 451 519 27,000  Level FlightAware ADS-B
Mon 11:50:47 PM 41.4467 -77.3414 138° Southeast 452 520 27,000  Level FlightAware ADS-B
Mon 11:51:19 PM 41.3961 -77.2806 138° Southeast 453 521 27,000  Level FlightAware ADS-B
Mon 11:51:50 PM 41.3480 -77.2230 138° Southeast 455 524 27,000  Level FlightAware ADS-B
Mon 11:52:21 PM 41.2996 -77.1650 138° Southeast 455 524 27,000  Level FlightAware ADS-B
Mon 11:52:58 PM 41.2422 -77.0967 138° Southeast 456 525 27,000  Level FlightAware ADS-B
Mon 11:53:30 PM 41.1906 -77.0354 138° Southeast 457 526 27,000  Level FlightAware ADS-B
Mon 11:54:02 PM 41.1406 -76.9761 138° Southeast 459 528 27,000  Level FlightAware ADS-B
Mon 11:54:34 PM 41.0901 -76.9163 138° Southeast 461 531 27,000  Level FlightAware ADS-B
Mon 11:55:04 PM 41.0416 -76.8591 138° Southeast 463 533 27,000  Level FlightAware ADS-B
Mon 11:55:34 PM 40.9932 -76.8020 138° Southeast 464 534 27,000  Level FlightAware ADS-B
Mon 11:56:05 PM 40.9443 -76.7447 138° Southeast 463 533 27,000  Level FlightAware ADS-B
Mon 11:56:37 PM 40.8934 -76.6849 138° Southeast 463 533 27,000 -774 Level FlightAware ADS-B
Mon 11:57:07 PM 40.8456 -76.6288 138° Southeast 449 517 26,200 -2,300 Descending FlightAware ADS-B
Mon 11:57:37 PM 40.7994 -76.5746 138° Southeast 442 509 24,700 -2,500 Descending FlightAware ADS-B
Mon 11:58:07 PM 40.7541 -76.5215 138° Southeast 434 499 23,700 -2,000 Descending FlightAware ADS-B
Mon 11:58:37 PM 40.7090 -76.4683 138° Southeast 427 491 22,700 -1,700 Descending FlightAware ADS-B
Mon 11:59:07 PM 40.6646 -76.4166 139° Southeast 419 482 22,000 -1,500 Descending FlightAware ADS-B
Mon 11:59:37 PM 40.6215 -76.3665 139° Southeast 412 474 21,200 -1,574 Descending FlightAware ADS-B
Tue 12:00:08 AM 40.5779 -76.3158 139° Southeast 409 471 20,400 -1,475 Descending FlightAware ADS-B
Tue 12:00:38 AM 40.5351 -76.2661 139° Southeast 408 470 19,700 -1,400 Descending FlightAware ADS-B
Tue 12:01:08 AM 40.4922 -76.2163 139° Southeast 410 472 19,000 -1,500 Descending FlightAware ADS-B
Tue 12:01:38 AM 40.4498 -76.1674 139° Southeast 401 461 18,200 -1,672 Descending FlightAware ADS-B
Tue 12:02:09 AM 40.4080 -76.1190 139° Southeast 393 452 17,300 -1,869 Descending FlightAware ADS-B
Tue 12:02:39 AM 40.3670 -76.0716 139° Southeast 391 450 16,300 -2,100 Descending FlightAware ADS-B
Tue 12:03:09 AM 40.3261 -76.0246 139° Southeast 387 445 15,200 -2,226 Descending FlightAware ADS-B
Tue 12:03:41 AM 40.2840 -75.9764 139° Southeast 381 438 14,000 -2,323 Descending FlightAware ADS-B
Tue 12:04:11 AM 40.2437 -75.9304 139° Southeast 370 426 12,800 -2,262 Descending FlightAware ADS-B
Tue 12:04:42 AM 40.2052 -75.8866 139° Southeast 359 413 11,700 -2,375 Descending FlightAware ADS-B
Tue 12:04:59 AM 40.1842 -75.8630 139° Southeast 354 407 10,900 -2,341 Descending FlightAware ADS-B
Tue 12:05:23 AM 40.1512 -75.8353 147° Southeast 348 400 10,100 -1,385 Descending FlightAware ADS-B
Tue 12:05:38 AM 40.1298 -75.8194 150° Southeast 346 398 10,000 -387 Descending FlightAware ADS-B
Tue 12:05:54 AM 40.1082 -75.8030 150° Southeast 346 398 9,900 -194 Descending FlightAware ADS-B
Tue 12:06:09 AM 40.0873 -75.7867 149° Southeast 346 398 9,900  Level FlightAware ADS-B
Tue 12:06:25 AM 40.0662 -75.7698 148° Southeast 324 373 9,900  Level FlightAware ADS-B
Tue 12:06:41 AM 40.0472 -75.7545 148° Southeast 303 349 9,900 -194 Level FlightAware ADS-B
Tue 12:06:56 AM 40.0303 -75.7407 148° Southeast 277 319 9,800 -1,355 Descending FlightAware ADS-B
Tue 12:07:12 AM 40.0127 -75.7266 148° Southeast 265 305 9,200 -2,357 Descending FlightAware ADS-B
Tue 12:07:24 AM 40.0000 -75.7166 149° Southeast 261 300 8,700 -2,571 Descending FlightAware ADS-B
Tue 12:07:40 AM 39.9838 -75.7038 149° Southeast 260 299 8,000 -2,710 Descending FlightAware ADS-B
Tue 12:07:55 AM 39.9681 -75.6912 148° Southeast 261 300 7,300 -2,800 Descending FlightAware ADS-B
Tue 12:08:10 AM 39.9524 -75.6785 148° Southeast 261 300 6,600 -2,903 Descending FlightAware ADS-B
Tue 12:08:26 AM 39.9365 -75.6656 148° Southeast 260 299 5,800 -2,516 Descending FlightAware ADS-B
Tue 12:08:41 AM 39.9210 -75.6527 147° Southeast 252 290 5,300 -1,548 Descending FlightAware ADS-B
Tue 12:08:57 AM 39.9057 -75.6400 148° Southeast 237 273 5,000 -1,235 Descending FlightAware ADS-B
Tue 12:09:15 AM 39.8894 -75.6265 148° Southeast 226 260 4,600 -1,286 Descending FlightAware ADS-B
Tue 12:09:25 AM 39.8810 -75.6195 147° Southeast 225 259 4,400 -1,250 Descending FlightAware ADS-B
Tue 12:09:39 AM 39.8684 -75.6089 147° Southeast 222 255 4,100 -1,071 Descending FlightAware ADS-B
Tue 12:09:53 AM 39.8563 -75.5991 148° Southeast 222 255 3,900 -1,059 Descending FlightAware ADS-B
Tue 12:09:56 AM 39.8534 -75.5966 147° Southeast 222 255 3,800 -1,714 Descending FlightAware ADS-B
Tue 12:10:00 AM 39.8504 -75.5936 142° Southeast 224 258 3,700 -857 Descending FlightAware ADS-B
Tue 12:10:03 AM 39.8479 -75.5904 135° Southeast 226 260 3,700 -1,000 Level FlightAware ADS-B
Tue 12:10:06 AM 39.8459 -75.5872 129° Southeast 227 261 3,600 -750 Descending FlightAware ADS-B
Tue 12:10:11 AM 39.8435 -75.5821 122° Southeast 229 264 3,600 -667 Level FlightAware ADS-B
Tue 12:10:15 AM 39.8418 -75.5772 114° Southeast 232 267 3,500 -857 Descending FlightAware ADS-B
Tue 12:10:18 AM 39.8407 -75.5730 109° East 234 269 3,500 -667 Level FlightAware ADS-B
Tue 12:10:24 AM 39.8389 -75.5642 105° East 235 270 3,400 -545 Descending FlightAware ADS-B
Tue 12:10:40 AM 39.8352 -75.5432 103° East 230 265 3,300 -581 Descending FlightAware ADS-B
Tue 12:10:55 AM 39.8318 -75.5229 102° East 223 257 3,100 -643 Descending FlightAware ADS-B
Tue 12:11:08 AM 39.8288 -75.5054 103° East 216 249 3,000 -414 Descending FlightAware ADS-B
Tue 12:11:24 AM 39.8257 -75.4863 102° East 204 235 2,900 -250 Descending FlightAware ADS-B
Tue 12:11:32 AM 39.8241 -75.4761 102° East 196 226 2,900  Level FlightAware ADS-B
Tue 12:11:36 AM 39.8237 -75.4715 96° East 194 223 2,900 -750 Level FlightAware ADS-B
Tue 12:11:40 AM 39.8235 -75.4678 94° East 193 222 2,800 -750 Descending FlightAware ADS-B
Tue 12:11:44 AM 39.8237 -75.4631 87° East 192 221 2,800 -750 Level FlightAware ADS-B
Tue 12:11:48 AM 39.8242 -75.4581 83° East 190 219 2,700 -1,200 Descending FlightAware ADS-B
Tue 12:11:54 AM 39.8255 -75.4510 77° East 190 219 2,600 -857 Descending FlightAware ADS-B
Tue 12:12:09 AM 39.8287 -75.4354 75° East 183 211 2,400 -800 Descending FlightAware ADS-B
Tue 12:12:24 AM 39.8318 -75.4199 75° East 177 204 2,200 -968 Descending FlightAware ADS-B
Tue 12:12:40 AM 39.8350 -75.4040 75° East 166 191 1,900 -960 Descending FlightAware ADS-B
Tue 12:12:49 AM 39.8368 -75.3949 76° East 158 182 1,800 -706 Descending FlightAware ADS-B
Tue 12:12:57 AM 39.8383 -75.3876 75° East 152 175 1,700 -750 Descending FlightAware ADS-B
Tue 12:13:13 AM 39.8410 -75.3741 75° East 144 166 1,500 -774 Descending FlightAware ADS-B
Tue 12:13:28 AM 39.8435 -75.3616 75° East 138 159 1,300 -692 Descending FlightAware ADS-B
Tue 12:13:39 AM 39.8452 -75.3534 75° East 138 159 1,200 -632 Descending FlightAware ADS-B
Tue 12:13:47 AM 39.8465 -75.3466 76° East 135 155 1,100 -750 Descending FlightAware ADS-B
Tue 12:13:55 AM 39.8476 -75.3409 76° East 132 152 1,000 -923 Descending FlightAware ADS-B
Tue 12:14:00 AM 39.8484 -75.3369 75° East 130 150 900 -545 Descending FlightAware ADS-B
Tue 12:14:06 AM 39.8494 -75.3321 75° East 129 148 900 -706 Level FlightAware ADS-B
Tue 12:14:17 AM 39.8511 -75.3240 75° East 127 146 700 -783 Descending FlightAware ADS-B
Tue 12:14:29 AM 39.8528 -75.3154 76° East 126 145 600 -571 Descending FlightAware ADS-B
Tue 12:14:38 AM 39.8541 -75.3085 76° East 126 145 500 -667 Descending FlightAware ADS-B
Tue 12:14:47 AM 39.8555 -75.3018 75° East 125 144 400 -667 Descending FlightAware ADS-B
Tue 12:14:56 AM 39.8567 -75.2958 75° East 125 144 300  Descending FlightAware ADS-B
Tue 12:15:28 AM 39.8608 -75.2736 75° East 131 151 400 11,543 Climbing New York Center
Tue 12:16:28 AM 39.8689 -75.2281 77° East 131 151 18,000 17,600 Climbing New York Center

Login

Don't have an account? Register now (free) for customized features, flight alerts, and more!